createdAt,value
2022-12-23T00:01:34.525Z,98635.59
2022-12-23T00:04:02.173Z,98638.69
2022-12-23T00:06:29.757Z,98629.47
2022-12-23T00:08:59.383Z,98636.44
2022-12-23T00:11:28.267Z,98628.88
2022-12-23T00:14:20.899Z,98632.97
2022-12-23T00:16:48.992Z,98622.53
2022-12-23T00:19:16.663Z,98620.72
2022-12-23T00:21:44.133Z,98630.72
2022-12-23T00:24:12.706Z,98638.88
2022-12-23T00:26:40.168Z,98629.28
2022-12-23T00:29:09.029Z,98626.22
2022-12-23T00:31:36.614Z,98627.44
2022-12-23T00:34:04.122Z,98628.06
2022-12-23T00:36:31.982Z,98629.50
2022-12-23T00:39:18.303Z,98625.41
2022-12-23T00:42:04.111Z,98620.91
2022-12-23T00:44:33.255Z,98616.00
2022-12-23T00:47:00.752Z,98593.53
2022-12-23T00:49:42.283Z,98626.63
2022-12-23T00:52:12.421Z,98621.31
2022-12-23T00:54:40.285Z,98623.94
2022-12-23T00:57:07.934Z,98623.97
2022-12-23T00:59:36.807Z,98595.56
2022-12-23T01:02:22.255Z,98632.75
2022-12-23T01:05:07.811Z,98639.69
2022-12-23T01:07:35.381Z,98637.25
2022-12-23T01:10:02.916Z,98636.63
2022-12-23T01:12:30.405Z,98637.66
2022-12-23T01:14:59.241Z,98647.88
2022-12-23T01:17:26.769Z,98609.63
2022-12-23T01:19:54.247Z,98647.66
2022-12-23T01:22:21.776Z,98641.53
2022-12-23T01:24:49.254Z,98638.06
2022-12-23T01:27:16.692Z,98630.91
2022-12-23T01:29:44.205Z,98641.53
2022-12-23T01:32:13.114Z,98626.81
2022-12-23T01:34:40.717Z,98616.59
2022-12-23T01:37:08.281Z,98638.66
2022-12-23T01:39:35.841Z,98624.38
2022-12-23T01:42:21.183Z,98636.81
2022-12-23T01:44:54.596Z,98651.94
2022-12-23T01:47:32.277Z,98657.03
2022-12-23T01:50:05.471Z,98637.81
2022-12-23T01:52:36.070Z,98651.13
2022-12-23T01:55:03.683Z,98656.63
2022-12-23T01:57:31.530Z,98655.03
2022-12-23T02:00:16.579Z,98643.56
2022-12-23T02:03:04.318Z,98658.28
2022-12-23T02:05:31.954Z,98658.66
2022-12-23T02:08:17.005Z,98658.88
2022-12-23T02:10:59.465Z,98631.31
2022-12-23T02:13:32.105Z,98662.59
2022-12-23T02:16:18.835Z,98664.22
2022-12-23T02:18:55.264Z,98662.75
2022-12-23T02:21:37.064Z,98661.97
2022-12-23T02:24:23.269Z,98672.41
2022-12-23T02:27:15.517Z,98673.19
2022-12-23T02:30:15.946Z,98675.25
2022-12-23T02:32:54.439Z,98659.28
2022-12-23T02:35:27.032Z,98669.13
2022-12-23T02:37:58.015Z,98664.59
2022-12-23T02:40:29.009Z,98673.38
2022-12-23T02:43:01.806Z,98675.44
2022-12-23T02:45:35.318Z,98678.53
2022-12-23T02:48:06.493Z,98682.81
2022-12-23T02:50:35.951Z,98674.44
2022-12-23T02:53:08.581Z,98683.41
2022-12-23T02:55:37.140Z,98685.28
2022-12-23T02:58:09.072Z,98682.63
2022-12-23T03:00:37.377Z,98680.53
2022-12-23T03:03:06.418Z,98679.13
2022-12-23T03:05:37.712Z,98683.22
2022-12-23T03:08:09.029Z,98681.78
2022-12-23T03:10:42.730Z,98688.53
2022-12-23T03:13:15.262Z,98689.97
2022-12-23T03:15:48.160Z,98686.94
2022-12-23T03:18:23.585Z,98688.72
2022-12-23T03:20:54.658Z,98687.53
2022-12-23T03:23:25.167Z,98706.50
2022-12-23T03:25:59.678Z,98688.91
2022-12-23T03:28:33.022Z,98702.63
2022-12-23T03:31:02.079Z,98715.09
2022-12-23T03:33:33.065Z,98714.06
2022-12-23T03:36:03.273Z,98710.38
2022-12-23T03:38:33.937Z,98714.06
2022-12-23T03:41:05.837Z,98722.03
2022-12-23T03:43:37.484Z,98716.13
2022-12-23T03:46:08.358Z,98707.31
2022-12-23T03:48:39.620Z,98723.44
2022-12-23T03:51:14.317Z,98727.94
2022-12-23T03:53:44.701Z,98736.13
2022-12-23T03:56:14.657Z,98732.47
2022-12-23T03:58:44.707Z,98724.53
2022-12-23T04:01:18.212Z,98720.78
2022-12-23T04:03:54.872Z,98734.50
2022-12-23T04:06:23.012Z,98732.47
2022-12-23T04:08:50.888Z,98734.53
2022-12-23T04:11:18.392Z,98745.31
2022-12-23T04:13:47.843Z,98731.47
2022-12-23T04:16:15.497Z,98753.69
2022-12-23T04:18:42.986Z,98750.44
2022-12-23T04:21:11.892Z,98760.06
2022-12-23T04:23:40.249Z,98748.38
2022-12-23T04:26:07.768Z,98756.38
2022-12-23T04:28:35.231Z,98752.28
2022-12-23T04:31:02.733Z,98721.41
2022-12-23T04:33:30.231Z,98751.84
2022-12-23T04:36:00.139Z,98756.56
2022-12-23T04:38:28.986Z,98736.28
2022-12-23T04:40:56.450Z,98745.31
2022-12-23T04:43:23.947Z,98760.25
2022-12-23T04:45:52.019Z,98754.53
2022-12-23T04:48:19.676Z,98753.28
2022-12-23T04:50:47.179Z,98744.63
2022-12-23T04:53:14.684Z,98758.16
2022-12-23T04:55:43.554Z,98730.13
2022-12-23T04:58:11.038Z,98760.38
2022-12-23T05:00:40.065Z,98745.69
2022-12-23T05:03:07.997Z,98766.34
2022-12-23T05:05:35.754Z,98765.16
2022-12-23T05:08:05.071Z,98759.44
2022-12-23T05:10:33.067Z,98757.13
2022-12-23T05:13:01.947Z,98764.50
2022-12-23T05:15:29.463Z,98762.41
2022-12-23T05:17:57.031Z,98775.31
2022-12-23T05:20:24.608Z,98763.22
2022-12-23T05:22:52.154Z,98783.72
2022-12-23T05:25:19.656Z,98783.53
2022-12-23T05:27:47.172Z,98791.88
2022-12-23T05:30:16.352Z,98795.97
2022-12-23T05:32:43.869Z,98801.72
2022-12-23T05:35:11.523Z,98803.13
2022-12-23T05:37:39.042Z,98798.19
2022-12-23T05:40:07.673Z,98803.31
2022-12-23T05:42:35.470Z,98784.09
2022-12-23T05:45:03.029Z,98814.09
2022-12-23T05:47:31.928Z,98820.44
2022-12-23T05:49:59.413Z,98803.09
2022-12-23T05:52:26.959Z,98792.28
2022-12-23T05:54:54.568Z,98810.25
2022-12-23T05:57:22.169Z,98774.44
2022-12-23T05:59:49.672Z,98808.81
2022-12-23T06:02:17.360Z,98810.06
2022-12-23T06:04:46.420Z,98808.22
2022-12-23T06:07:13.963Z,98816.59
2022-12-23T06:09:41.510Z,98817.00
2022-12-23T06:12:09.289Z,98817.66
2022-12-23T06:14:36.825Z,98815.78
2022-12-23T06:17:04.324Z,98822.72
2022-12-23T06:19:32.318Z,98823.28
2022-12-23T06:22:01.247Z,98824.72
2022-12-23T06:24:28.797Z,98830.69
2022-12-23T06:26:57.397Z,98829.06
2022-12-23T06:29:25.442Z,98826.78
2022-12-23T06:31:53.040Z,98811.41
2022-12-23T06:34:20.572Z,98834.75
2022-12-23T06:36:48.076Z,98839.28
2022-12-23T06:39:16.919Z,98845.31
2022-12-23T06:41:44.421Z,98856.75
2022-12-23T06:44:13.075Z,98856.75
2022-12-23T06:46:41.245Z,98862.66
2022-12-23T06:49:13.013Z,98843.38
2022-12-23T06:51:41.526Z,98852.97
2022-12-23T06:54:11.118Z,98858.97
2022-12-23T06:56:40.221Z,98854.59
2022-12-23T06:59:07.748Z,98872.34
2022-12-23T07:01:35.308Z,98875.28
2022-12-23T07:04:03.064Z,98866.28
2022-12-23T07:06:30.594Z,98881.69
2022-12-23T07:08:58.287Z,98882.69
2022-12-23T07:11:25.782Z,98887.72
2022-12-23T07:13:54.664Z,98872.34
2022-12-23T07:16:22.253Z,98900.66
2022-12-23T07:18:49.773Z,98870.53
2022-12-23T07:21:26.503Z,98904.03
2022-12-23T07:23:56.307Z,98908.50
2022-12-23T07:26:23.793Z,98894.88
2022-12-23T07:28:51.336Z,98910.97
2022-12-23T07:31:20.266Z,98883.34
2022-12-23T07:33:47.971Z,98891.47
2022-12-23T07:36:15.512Z,98898.91
2022-12-23T07:38:43.000Z,98905.34
2022-12-23T07:41:10.496Z,98906.75
2022-12-23T07:43:37.993Z,98916.59
2022-12-23T07:46:08.849Z,98926.31
2022-12-23T07:48:37.776Z,98894.13
2022-12-23T07:51:05.735Z,98880.19
2022-12-23T07:53:33.247Z,98909.06
2022-12-23T07:56:00.765Z,98910.56
2022-12-23T07:58:28.460Z,98910.56
2022-12-23T08:01:01.140Z,98911.22
2022-12-23T08:03:28.844Z,98922.22
2022-12-23T08:06:06.210Z,98917.25
2022-12-23T08:08:34.273Z,98931.63
2022-12-23T08:11:03.557Z,98935.56
2022-12-23T08:13:35.003Z,98949.88
2022-12-23T08:16:03.981Z,98950.72
2022-12-23T08:18:32.351Z,98967.41
2022-12-23T08:21:01.797Z,98963.00
2022-12-23T08:23:31.879Z,98960.16
2022-12-23T08:26:01.219Z,98952.66
2022-12-23T08:28:29.012Z,98943.00
2022-12-23T08:30:56.777Z,98956.66
2022-12-23T08:33:24.261Z,98945.72
2022-12-23T08:35:54.933Z,98959.84
2022-12-23T08:38:22.690Z,98957.41
2022-12-23T08:40:51.616Z,98956.84
2022-12-23T08:43:19.174Z,98945.19
2022-12-23T08:45:46.758Z,98944.75
2022-12-23T08:48:14.381Z,98959.84
2022-12-23T08:50:43.211Z,98962.22
2022-12-23T08:53:11.511Z,98960.00
2022-12-23T08:55:40.003Z,98961.06
2022-12-23T08:58:09.451Z,98965.47
2022-12-23T09:00:37.881Z,98969.59
2022-12-23T09:03:05.752Z,98964.88
2022-12-23T09:05:33.860Z,98958.22
2022-12-23T09:08:01.516Z,98970.06
2022-12-23T09:10:29.255Z,98972.34
2022-12-23T09:12:58.174Z,98982.69
2022-12-23T09:15:27.219Z,98978.28
2022-12-23T09:17:54.898Z,98958.16
2022-12-23T09:20:22.479Z,98967.25
2022-12-23T09:22:50.082Z,98947.78
2022-12-23T09:25:17.811Z,98969.69
2022-12-23T09:27:45.278Z,98979.31
2022-12-23T09:30:13.665Z,98971.97
2022-12-23T09:32:42.525Z,98974.00
2022-12-23T09:35:10.944Z,98951.94
2022-12-23T09:37:38.437Z,98973.34
2022-12-23T09:40:08.795Z,98968.31
2022-12-23T09:42:46.933Z,98979.53
2022-12-23T09:45:21.158Z,98979.91
2022-12-23T09:47:50.393Z,98996.13
2022-12-23T09:50:21.831Z,98982.69
2022-12-23T09:52:55.606Z,98991.59
2022-12-23T09:55:25.087Z,98978.53
2022-12-23T09:57:59.259Z,98973.38
2022-12-23T10:00:27.453Z,98975.16
2022-12-23T10:03:09.531Z,98947.72
2022-12-23T10:05:46.988Z,98946.00
2022-12-23T10:08:19.376Z,98955.34
2022-12-23T10:10:49.871Z,98960.22
2022-12-23T10:13:27.019Z,98954.31
2022-12-23T10:15:57.733Z,98956.00
2022-12-23T10:18:32.658Z,98956.78
2022-12-23T10:21:02.755Z,98943.94
2022-12-23T10:23:35.736Z,98942.06
2022-12-23T10:26:05.773Z,98942.06
2022-12-23T10:28:33.290Z,98942.28
2022-12-23T10:31:30.989Z,98928.16
2022-12-23T10:34:00.110Z,98941.97
2022-12-23T10:36:34.424Z,98937.50
2022-12-23T10:39:04.219Z,98942.22
2022-12-23T10:41:38.066Z,98942.81
2022-12-23T10:44:26.761Z,98940.38
2022-12-23T10:47:02.766Z,98938.94
2022-12-23T10:49:39.291Z,98935.69
2022-12-23T10:52:11.207Z,98937.94
2022-12-23T10:54:39.312Z,98937.13
2022-12-23T10:57:07.481Z,98944.31
2022-12-23T10:59:36.959Z,98940.63
2022-12-23T11:02:15.948Z,98907.88
2022-12-23T11:04:46.712Z,98939.41
2022-12-23T11:07:43.525Z,98941.84
2022-12-23T11:10:09.167Z,98926.50
2022-12-23T11:12:42.959Z,98921.78
2022-12-23T11:15:28.052Z,98914.81
2022-12-23T11:18:00.627Z,98910.69
2022-12-23T11:20:30.039Z,98907.78
2022-12-23T11:22:59.828Z,98913.31
2022-12-23T11:25:31.237Z,98908.06
2022-12-23T11:28:00.444Z,98897.97
2022-12-23T11:30:29.388Z,98898.22
2022-12-23T11:32:57.382Z,98886.75
2022-12-23T11:35:26.753Z,98885.09
2022-12-23T11:37:56.168Z,98873.59
2022-12-23T11:40:26.419Z,98876.47
2022-12-23T11:42:57.414Z,98865.38
2022-12-23T11:45:26.890Z,98850.72
2022-12-23T11:47:54.588Z,98855.41
2022-12-23T11:50:29.485Z,98851.47
2022-12-23T11:53:09.911Z,98830.66
2022-12-23T11:55:38.648Z,98819.38
2022-12-23T11:58:06.779Z,98851.25
2022-12-23T12:00:38.008Z,98847.41
2022-12-23T12:03:06.355Z,98842.88
2022-12-23T12:05:36.305Z,98833.47
2022-12-23T12:08:07.904Z,98826.16
2022-12-23T12:10:38.267Z,98809.44
2022-12-23T12:13:07.763Z,98816.19
2022-12-23T12:15:40.747Z,98804.94
2022-12-23T12:18:12.030Z,98793.69
2022-12-23T12:20:42.677Z,98804.72
2022-12-23T12:23:15.167Z,98808.22
2022-12-23T12:25:45.122Z,98803.88
2022-12-23T12:28:15.000Z,98797.31
2022-12-23T12:30:45.977Z,98796.69
2022-12-23T12:33:16.976Z,98797.97
2022-12-23T12:35:50.692Z,98800.84
2022-12-23T12:38:26.625Z,98795.94
2022-12-23T12:40:57.285Z,98790.84
2022-12-23T12:43:27.837Z,98785.69
2022-12-23T12:46:05.944Z,98787.94
2022-12-23T12:48:39.885Z,98779.59
2022-12-23T12:51:14.174Z,98784.28
2022-12-23T12:54:04.637Z,98777.09
2022-12-23T12:56:37.648Z,98775.28
2022-12-23T12:59:05.169Z,98769.94
2022-12-23T13:01:44.767Z,98767.69
2022-12-23T13:04:30.627Z,98771.59
2022-12-23T13:07:03.840Z,98765.78
2022-12-23T13:09:38.818Z,98718.38
2022-12-23T13:12:09.850Z,98713.88
2022-12-23T13:14:48.136Z,98748.06
2022-12-23T13:17:19.098Z,98751.34
2022-12-23T13:19:51.892Z,98746.25
2022-12-23T13:22:23.088Z,98729.41
2022-12-23T13:24:57.672Z,98716.75
2022-12-23T13:27:29.651Z,98739.50
2022-12-23T13:30:03.406Z,98734.53
2022-12-23T13:32:42.659Z,98730.09
2022-12-23T13:35:22.700Z,98730.69
2022-12-23T13:37:55.117Z,98730.47
2022-12-23T13:40:32.472Z,98723.09
2022-12-23T13:43:05.882Z,98703.03
2022-12-23T13:45:36.822Z,98727.16
2022-12-23T13:48:24.899Z,98711.19
2022-12-23T13:50:58.126Z,98716.09
2022-12-23T13:53:33.204Z,98704.25
2022-12-23T13:56:08.790Z,98691.81
2022-12-23T13:58:36.696Z,98698.19
2022-12-23T14:01:21.941Z,98688.97
2022-12-23T14:03:50.491Z,98674.63
2022-12-23T14:06:21.867Z,98681.78
2022-12-23T14:08:49.626Z,98678.13
2022-12-23T14:11:20.744Z,98678.09
2022-12-23T14:13:55.967Z,98684.25
2022-12-23T14:16:34.119Z,98645.81
2022-12-23T14:19:22.007Z,98659.72
2022-12-23T14:21:56.621Z,98659.47
2022-12-23T14:24:36.704Z,98656.22
2022-12-23T14:27:22.687Z,98641.06
2022-12-23T14:30:03.358Z,98634.97
2022-12-23T14:32:40.783Z,98637.13
2022-12-23T14:35:44.746Z,98639.06
2022-12-23T14:38:25.237Z,98635.41
2022-12-23T14:40:59.440Z,98616.16
2022-12-23T14:43:55.672Z,98618.84
2022-12-23T14:46:59.324Z,98624.28
2022-12-23T14:49:43.950Z,98612.50
2022-12-23T14:52:44.758Z,98610.91
2022-12-23T14:55:44.612Z,98598.22
2022-12-23T14:58:24.161Z,98591.22
2022-12-23T15:00:56.136Z,98601.88
2022-12-23T15:03:25.020Z,98602.50
2022-12-23T15:06:00.115Z,98599.84
2022-12-23T15:08:32.630Z,98598.88
2022-12-23T15:11:00.491Z,98574.97
2022-12-23T15:13:29.861Z,98574.75
2022-12-23T15:16:01.776Z,98563.28
2022-12-23T15:18:31.232Z,98560.44
2022-12-23T15:21:00.373Z,98545.97
2022-12-23T15:23:28.021Z,98563.72
2022-12-23T15:25:57.544Z,98582.13
2022-12-23T15:28:32.427Z,98585.56
2022-12-23T15:31:01.050Z,98583.72
2022-12-23T15:34:02.335Z,98571.66
2022-12-23T15:36:30.501Z,98576.19
2022-12-23T15:38:59.470Z,98571.88
2022-12-23T15:41:27.115Z,98543.69
2022-12-23T15:43:57.536Z,98544.13
2022-12-23T15:46:30.091Z,98547.78
2022-12-23T15:48:59.582Z,98521.47
2022-12-23T15:52:05.250Z,98540.84
2022-12-23T15:54:22.941Z,98525.13
2022-12-23T15:56:53.370Z,98542.06
2022-12-23T15:59:26.643Z,98542.84
2022-12-23T16:01:54.729Z,98547.34
2022-12-23T16:04:26.466Z,98551.47
2022-12-23T16:06:54.866Z,98551.88
2022-12-23T16:09:33.760Z,98553.28
2022-12-23T16:12:04.276Z,98531.66
2022-12-23T16:14:38.526Z,98541.66
2022-12-23T16:17:23.858Z,98532.91
2022-12-23T16:19:54.400Z,98532.47
2022-12-23T16:22:32.071Z,98541.66
2022-12-23T16:25:11.539Z,98528.56
2022-12-23T16:27:41.306Z,98522.22
2022-12-23T16:30:15.624Z,98514.25
2022-12-23T16:32:48.170Z,98515.50
2022-12-23T16:35:26.824Z,98522.88
2022-12-23T16:37:58.495Z,98512.25
2022-12-23T16:40:26.041Z,98477.50
2022-12-23T16:42:53.565Z,98485.44
2022-12-23T16:45:21.141Z,98469.94
2022-12-23T16:47:48.739Z,98464.81
2022-12-23T16:50:16.830Z,98464.44
2022-12-23T16:52:45.703Z,98465.03
2022-12-23T16:55:15.805Z,98441.56
2022-12-23T16:57:43.330Z,98411.97
2022-12-23T17:00:15.906Z,98436.69
2022-12-23T17:02:44.022Z,98437.56
2022-12-23T17:05:15.594Z,98442.22
2022-12-23T17:07:45.450Z,98433.47
2022-12-23T17:10:16.274Z,98423.25
2022-12-23T17:12:44.725Z,98429.19
2022-12-23T17:15:18.224Z,98423.47
2022-12-23T17:17:45.994Z,98389.19
2022-12-23T17:20:13.771Z,98402.88
2022-12-23T17:22:41.844Z,98416.75
2022-12-23T17:25:14.101Z,98416.13
2022-12-23T17:27:41.939Z,98407.38
2022-12-23T17:30:15.231Z,98424.50
2022-12-23T17:32:42.819Z,98419.19
2022-12-23T17:35:15.322Z,98415.53
2022-12-23T17:37:43.468Z,98388.19
2022-12-23T17:40:14.366Z,98386.56
2022-12-23T17:42:42.278Z,98403.50
2022-12-23T17:45:21.637Z,98375.53
2022-12-23T17:47:49.217Z,98368.63
2022-12-23T17:50:16.752Z,98373.50
2022-12-23T17:52:44.236Z,98353.13
2022-12-23T17:55:17.819Z,98364.16
2022-12-23T17:57:45.689Z,98391.25
2022-12-23T18:00:18.591Z,98406.75
2022-12-23T18:02:56.269Z,98417.56
2022-12-23T18:05:26.397Z,98419.59
2022-12-23T18:07:54.809Z,98391.25
2022-12-23T18:10:26.740Z,98391.88
2022-12-23T18:12:56.556Z,98403.28
2022-12-23T18:15:26.156Z,98397.38
2022-12-23T18:17:53.996Z,98394.13
2022-12-23T18:20:23.481Z,98406.56
2022-12-23T18:22:52.923Z,98399.81
2022-12-23T18:25:22.522Z,98409.34
2022-12-23T18:27:51.809Z,98375.31
2022-12-23T18:30:20.112Z,98395.50
2022-12-23T18:32:47.688Z,98396.69
2022-12-23T18:35:26.954Z,98399.09
2022-12-23T18:37:54.732Z,98412.63
2022-12-23T18:40:24.069Z,98399.16
2022-12-23T18:42:55.958Z,98406.50
2022-12-23T18:45:30.797Z,98398.56
2022-12-23T18:47:58.908Z,98405.31
2022-12-23T18:50:27.396Z,98409.19
2022-12-23T18:52:55.217Z,98371.84
2022-12-23T18:55:23.058Z,98401.59
2022-12-23T18:57:50.917Z,98414.03
2022-12-23T19:00:21.953Z,98428.59
2022-12-23T19:02:50.394Z,98423.06
2022-12-23T19:05:20.400Z,98423.41
2022-12-23T19:07:48.602Z,98431.34
2022-12-23T19:10:18.883Z,98432.38
2022-12-23T19:12:46.868Z,98439.75
2022-12-23T19:15:15.228Z,98426.03
2022-12-23T19:17:44.496Z,98429.06
2022-12-23T19:20:13.797Z,98434.78
2022-12-23T19:22:41.458Z,98441.91
2022-12-23T19:25:10.487Z,98430.91
2022-12-23T19:27:39.761Z,98442.72
2022-12-23T19:30:09.730Z,98453.31
2022-12-23T19:32:37.384Z,98444.34
2022-12-23T19:35:07.045Z,98452.84
2022-12-23T19:37:36.305Z,98454.44
2022-12-23T19:40:04.922Z,98459.75
2022-12-23T19:42:33.859Z,98473.44
2022-12-23T19:45:01.443Z,98474.25
2022-12-23T19:47:28.950Z,98467.72
2022-12-23T19:49:56.684Z,98482.47
2022-12-23T19:52:25.587Z,98482.06
2022-12-23T19:54:53.356Z,98494.28
2022-12-23T19:57:20.946Z,98494.28
2022-12-23T19:59:48.641Z,98494.91
2022-12-23T20:02:17.168Z,98499.00
2022-12-23T20:04:45.012Z,98490.22
2022-12-23T20:07:12.595Z,98479.19
2022-12-23T20:09:41.523Z,98492.66
2022-12-23T20:12:09.239Z,98491.25
2022-12-23T20:14:37.079Z,98484.69
2022-12-23T20:17:04.938Z,98514.13
2022-12-23T20:19:32.492Z,98514.94
2022-12-23T20:22:00.171Z,98489.41
2022-12-23T20:24:27.759Z,98513.28
2022-12-23T20:26:57.918Z,98521.03
2022-12-23T20:29:25.544Z,98516.34
2022-12-23T20:31:53.052Z,98487.78
2022-12-23T20:34:20.602Z,98524.13
2022-12-23T20:36:48.226Z,98517.56
2022-12-23T20:39:15.870Z,98519.63
2022-12-23T20:41:43.597Z,98516.34
2022-12-23T20:47:02.000Z,98529.41
2022-12-23T20:49:29.557Z,98535.75
2022-12-23T20:51:57.153Z,98533.72
2022-12-23T20:54:31.688Z,98548.81
2022-12-23T20:57:00.808Z,98541.06
2022-12-23T20:59:29.946Z,98517.97
2022-12-23T21:01:58.972Z,98543.09
2022-12-23T21:04:27.005Z,98540.88
2022-12-23T21:06:54.514Z,98552.09
2022-12-23T21:09:22.074Z,98548.41
2022-12-23T21:11:49.969Z,98547.59
2022-12-23T21:14:19.642Z,98551.88
2022-12-23T21:16:48.705Z,98560.44
2022-12-23T21:19:17.963Z,98571.06
2022-12-23T21:21:46.167Z,98566.97
2022-12-23T21:24:13.994Z,98575.16
2022-12-23T21:26:41.981Z,98575.19
2022-12-23T21:29:10.737Z,98573.31
2022-12-23T21:31:40.065Z,98579.03
2022-12-23T21:34:09.500Z,98588.66
2022-12-23T21:36:39.511Z,98596.00
2022-12-23T21:39:08.154Z,98592.72
2022-12-23T21:41:37.756Z,98594.38
2022-12-23T21:44:06.302Z,98597.22
2022-12-23T21:46:34.129Z,98594.38
2022-12-23T21:49:01.781Z,98600.69
2022-12-23T21:51:39.039Z,98602.75
2022-12-23T21:54:07.684Z,98610.72
2022-12-23T21:56:35.420Z,98618.28
2022-12-23T21:59:04.764Z,98582.53
2022-12-23T22:01:32.996Z,98626.22
2022-12-23T22:04:00.865Z,98633.19
2022-12-23T22:06:31.679Z,98639.72
2022-12-23T22:09:00.153Z,98635.63
2022-12-23T22:11:29.460Z,98645.88
2022-12-23T22:13:57.474Z,98648.53
2022-12-23T22:16:27.629Z,98632.34
2022-12-23T22:18:55.831Z,98644.22
2022-12-23T22:21:33.395Z,98646.25
2022-12-23T22:24:03.839Z,98654.44
2022-12-23T22:26:33.555Z,98666.31
2022-12-23T22:29:03.228Z,98662.59
2022-12-23T22:31:32.979Z,98657.53
2022-12-23T22:34:00.865Z,98639.09
2022-12-23T22:36:28.534Z,98667.94
2022-12-23T22:38:58.486Z,98666.72
2022-12-23T22:41:28.736Z,98648.13
2022-12-23T22:43:56.426Z,98656.88
2022-12-23T22:46:24.336Z,98668.34
2022-12-23T22:48:52.401Z,98674.09
2022-12-23T22:51:22.168Z,98670.00
2022-12-23T22:53:49.986Z,98666.13
2022-12-23T22:56:18.974Z,98671.63
2022-12-23T22:58:48.259Z,98665.09
2022-12-23T23:01:21.926Z,98675.09
2022-12-23T23:03:51.018Z,98671.81
2022-12-23T23:06:18.959Z,98664.69
2022-12-23T23:08:46.546Z,98688.19
2022-12-23T23:11:14.015Z,98683.47
2022-12-23T23:13:41.597Z,98690.44
2022-12-23T23:16:10.500Z,98693.69
2022-12-23T23:18:39.187Z,98705.56
2022-12-23T23:21:06.771Z,98696.34
2022-12-23T23:23:34.308Z,98708.81
2022-12-23T23:26:01.770Z,98703.31
2022-12-23T23:28:29.302Z,98710.88
2022-12-23T23:31:17.152Z,98686.50
2022-12-23T23:33:45.631Z,98711.69
2022-12-23T23:36:13.142Z,98720.28
2022-12-23T23:38:40.632Z,98720.06
2022-12-23T23:41:08.127Z,98718.59
2022-12-23T23:43:35.694Z,98728.81
2022-12-23T23:46:03.529Z,98732.31
2022-12-23T23:48:30.987Z,98736.41
2022-12-23T23:51:05.879Z,98744.38
2022-12-23T23:53:33.570Z,98742.28
2022-12-23T23:56:02.897Z,98737.19
2022-12-23T23:58:30.432Z,98745.22
